Latest Weather Observations for Gayndah

IDQ60801

Issued at 9:02 am EST Sunday 19 April 2015 (issued every 30 minutes, with the page automatically refreshed every 10 minutes)

About weather observations | Map of weather stations | Latest weather observations for QLD | Other Formats
Station Details ID: 039066 Name: GAYNDAH AIRPORT Lat: -25.62 Lon: 151.62 Height: 110.9 m
Data from the previous 72 hours. | See also: Recent months at Gayndah
Date/Time
EST
Temp
°C
App
Temp
°C
Dew
Point
Rel
Hum
%
Delta-T
°C
Wind Press
QNH
hPa
Press
MSL
hPa
Rain
since 9 am
mm
Dir
 
Spd
km/h
Gust
km/h
Spd
kts
Gust
kts
19/08:30am 23.1 25.3 19.3 79 2.4 E 6 9 3 5 1019.7 1019.3 0.0
19/08:00am 20.9 24.2 19.2 90 1.1 CALM 0 0 0 0 1019.7 1019.3 0.0
19/07:30am 19.8 23.0 18.8 94 0.6 CALM 0 0 0 0 1019.4 1019.0 0.0
19/07:00am 18.7 21.5 18.0 96 0.4 CALM 0 2 0 1 1019.0 1018.6 0.0
19/06:30am 17.9 19.7 17.4 97 0.3 SW 4 6 2 3 1019.0 1018.6 0.0
19/06:00am 17.8 20.3 17.3 97 0.3 CALM 0 0 0 0 1018.8 1018.4 0.0
19/05:30am 17.9 20.5 17.4 97 0.3 CALM 0 0 0 0 1018.5 1018.1 0.0
19/05:00am 18.3 20.2 17.7 96 0.4 N 4 4 2 2 1018.4 1018.0 0.0
19/04:30am 18.4 20.2 17.4 94 0.6 NNE 4 4 2 2 1018.0 1017.6 0.0
19/04:00am 18.9 21.4 18.1 95 0.5 N 2 4 1 2 1018.1 1017.7 0.0
19/03:30am 19.1 21.5 17.9 93 0.7 NNE 2 4 1 2 1018.0 1017.6 0.0
19/03:00am 19.3 22.2 18.1 93 0.7 CALM 0 0 0 0 1018.2 1017.8 0.0
19/02:30am 18.9 21.5 17.4 91 0.9 CALM 0 2 0 1 1018.4 1018.0 0.0
19/02:00am 19.7 21.5 17.5 87 1.3 E 4 4 2 2 1018.8 1018.4 0.0
19/01:30am 20.3 22.4 18.2 88 1.3 ENE 4 4 2 2 1019.3 1018.9 0.0
19/01:00am 20.5 22.7 18.3 87 1.4 ENE 4 4 2 2 1019.6 1019.2 0.0
19/12:30am 20.4 23.3 18.3 88 1.3 CALM 0 0 0 0 1019.9 1019.5 0.0
19/12:00am 19.6 21.9 17.6 88 1.2 N 2 4 1 2 1019.8 1019.4 0.0
 
Date/Time
EST
Temp
°C
App
Temp
°C
Dew
Point
Rel
Hum
%
Delta-T
°C
Wind Press
QNH
hPa
Press
MSL
hPa
Rain
since 9 am
mm
Dir
 
Spd
km/h
Gust
km/h
Spd
kts
Gust
kts
18/11:30pm 19.7 22.4 17.7 88 1.2 CALM 0 0 0 0 1020.0 1019.6 0.0
18/11:00pm 20.1 21.6 17.5 85 1.6 ENE 6 7 3 4 1020.1 1019.7 0.0
18/10:30pm 20.1 21.3 17.3 84 1.7 ENE 7 9 4 5 1020.2 1019.8 0.0
18/10:00pm 20.6 21.8 17.4 82 2.0 ENE 7 9 4 5 1020.3 1019.9 0.0
18/09:30pm 21.2 22.1 17.6 80 2.2 ENE 9 11 5 6 1020.2 1019.8 0.0
18/09:00pm 21.5 22.8 17.5 78 2.5 NE 7 9 4 5 1020.3 1019.9 0.0
18/08:30pm 21.4 22.0 16.8 75 2.8 ENE 9 11 5 6 1020.0 1019.6 0.0
18/08:00pm 22.0 22.9 16.5 71 3.3 NE 7 9 4 5 1019.8 1019.4 0.0
18/07:30pm 22.8 23.3 16.6 68 3.8 NE 9 17 5 9 1019.5 1019.1 0.0
18/07:00pm 23.2 23.6 16.3 65 4.2 NE 9 13 5 7 1019.1 1018.7 0.0
18/06:30pm 23.9 24.3 16.4 63 4.6 NE 9 13 5 7 1018.6 1018.2 0.0
18/06:00pm 24.4 24.7 16.1 60 5.1 NE 9 13 5 7 1018.4 1018.0 0.0
18/05:30pm 25.6 25.3 16.5 57 5.6 NNE 13 22 7 12 1018.3 1017.9 0.0
18/05:00pm 26.2 25.0 16.2 54 6.2 NNE 17 22 9 12 1018.0 1017.6 0.0
18/04:30pm 26.8 26.0 17.0 55 6.1 N 17 28 9 15 1017.7 1017.3 0.0
18/04:00pm 27.7 27.5 16.6 50 6.9 NNE 13 20 7 11 1017.5 1017.1 0.0
18/03:30pm 27.6 27.5 16.9 52 6.7 ENE 13 17 7 9 1017.6 1017.2 0.0
18/03:00pm 28.9 29.2 17.1 49 7.4 NE 11 20 6 11 1017.7 1017.3 0.0
18/02:30pm 28.1 26.9 16.1 48 7.4 NE 17 24 9 13 1018.0 1017.6 0.0
18/02:00pm 27.6 26.6 15.6 48 7.4 NE 15 22 8 12 1018.1 1017.7 0.0
18/01:30pm 28.0 25.9 15.3 46 7.8 NE 20 30 11 16 1018.3 1017.9 0.0
18/01:00pm 28.6 26.9 17.2 50 7.2 NNE 22 39 12 21 1018.5 1018.1 0.0
18/12:30pm 28.9 27.7 16.1 46 8.0 NE 17 22 9 12 1019.0 1018.6 0.0
18/12:00pm 28.7 27.7 16.6 48 7.6 NNE 17 24 9 13 1019.7 1019.3 0.0
18/11:30am 27.3 26.7 16.6 52 6.7 NE 15 24 8 13 1020.4 1020.0 0.0
18/11:00am 27.3 26.1 16.0 50 7.0 NE 17 30 9 16 1021.0 1020.6 0.0
18/10:30am 25.8 27.2 17.7 61 5.1 NNE 7 11 4 6 1021.5 1021.1 0.0
18/10:00am 25.2 26.7 17.7 63 4.7 NNE 6 9 3 5 1021.8 1021.4 0.0
18/09:30am 24.1 26.0 18.5 71 3.6 ENE 6 11 3 6 1022.0 1021.6 0.0
18/09:00am 24.5 25.3 18.2 68 4.0 E 11 17 6 9 1022.0 1021.6 0.0
18/08:30am 23.5 25.2 18.4 73 3.2 ENE 7 11 4 6 1021.9 1021.5 0.0
18/08:00am 22.5 24.4 18.5 78 2.5 ENE 6 9 3 5 1021.7 1021.3 0.0
18/07:30am 21.2 23.1 18.6 85 1.6 ENE 6 9 3 5 1021.1 1020.7 0.0
18/07:00am 19.4 22.3 18.1 92 0.8 CALM 0 0 0 0 1020.9 1020.5 0.0
18/06:30am 18.4 20.1 17.2 93 0.7 NE 4 4 2 2 1021.0 1020.6 0.0
18/06:00am 19.0 21.2 17.5 91 0.9 NNW 2 4 1 2 1020.8 1020.4 0.0
18/05:30am 19.8 22.2 17.9 89 1.2 E 2 6 1 3 1020.3 1019.9 0.0
18/05:00am 19.7 21.3 18.2 91 0.9 ESE 7 13 4 7 1020.3 1019.9 0.0
18/04:30am 19.6 20.7 17.9 90 1.1 E 9 11 5 6 1020.4 1020.0 0.0
18/04:00am 19.5 20.6 18.0 91 0.9 E 9 17 5 9 1020.1 1019.7 0.0
18/03:30am 19.6 21.0 17.9 90 1.1 ESE 7 13 4 7 1020.3 1019.9 0.0
18/03:00am 20.1 21.5 17.7 86 1.5 ESE 7 9 4 5 1020.5 1020.1 0.0
18/02:30am 20.4 22.1 18.0 86 1.5 ESE 6 9 3 5 1020.6 1020.2 0.0
18/02:00am 20.3 21.9 17.9 86 1.5 SE 6 11 3 6 1020.8 1020.4 0.0
18/01:30am 20.2 22.3 18.0 87 1.4 SE 4 7 2 4 1020.9 1020.5 0.0
18/01:00am 20.6 21.8 18.2 86 1.5 ESE 9 17 5 9 1021.1 1020.7 0.0
18/12:30am 19.4 21.6 17.4 88 1.2 NE 2 4 1 2 1021.1 1020.7 0.0
18/12:00am 19.8 21.6 17.4 86 1.5 ESE 4 6 2 3 1021.2 1020.8 0.0
 
Date/Time
EST
Temp
°C
App
Temp
°C
Dew
Point
Rel
Hum
%
Delta-T
°C
Wind Press
QNH
hPa
Press
MSL
hPa
Rain
since 9 am
mm
Dir
 
Spd
km/h
Gust
km/h
Spd
kts
Gust
kts
17/11:30pm 20.3 21.9 17.9 86 1.5 ESE 6 9 3 5 1021.4 1021.0 0.0
17/11:00pm 20.4 20.1 18.2 87 1.4 SE 17 22 9 12 1021.5 1021.1 0.0
17/10:30pm 22.6 22.6 17.1 71 3.4 E 13 19 7 10 1021.7 1021.3 0.0
17/10:00pm 22.4 22.3 16.9 71 3.4 ENE 13 19 7 10 1021.7 1021.3 0.0
17/09:30pm 22.2 22.8 16.7 71 3.4 E 9 17 5 9 1021.6 1021.2 0.0
17/09:00pm 21.9 22.3 16.2 70 3.4 E 9 13 5 7 1021.4 1021.0 0.0
17/08:30pm 22.7 22.6 16.0 66 4.1 ESE 11 20 6 11 1021.1 1020.7 0.0
17/08:00pm 22.1 22.8 15.7 67 3.8 E 6 9 3 5 1021.2 1020.8 0.0
17/07:30pm 21.8 22.2 15.4 67 3.8 ENE 7 11 4 6 1020.8 1020.4 0.0
17/07:00pm 22.9 22.2 15.5 63 4.4 ENE 13 17 7 9 1020.2 1019.8 0.0
17/06:30pm 23.7 22.8 14.9 57 5.3 ENE 13 15 7 8 1019.9 1019.5 0.0
17/06:00pm 25.3 24.2 15.3 54 6.0 E 15 22 8 12 1019.5 1019.1 0.0
17/05:30pm 26.0 23.9 15.1 51 6.6 ENE 20 28 11 15 1019.1 1018.7 0.0
17/05:00pm 26.6 24.4 15.9 51 6.6 ENE 22 28 12 15 1018.8 1018.4 0.0
17/04:30pm 27.4 26.6 16.1 50 7.0 NE 15 20 8 11 1018.5 1018.1 0.0
17/04:00pm 27.4 26.7 15.4 48 7.3 NNE 13 22 7 12 1018.3 1017.9 0.0
17/03:30pm 27.1 25.4 14.8 47 7.4 NE 17 22 9 12 1018.2 1017.8 0.0
17/03:00pm 27.3 27.1 15.7 49 7.1 ENE 11 22 6 12 1018.5 1018.1 0.0
17/02:30pm 27.3 27.6 16.9 53 6.5 ESE 11 15 6 8 1018.8 1018.4 0.0
17/02:00pm 27.3 27.7 16.3 51 6.8 ENE 9 22 5 12 1018.9 1018.5 0.0
17/01:30pm 26.7 26.5 16.6 54 6.3 NE 13 20 7 11 1019.4 1019.0 0.0
17/01:00pm 26.4 26.0 16.1 53 6.3 NE 13 20 7 11 1019.9 1019.5 0.0
17/12:30pm 26.6 25.4 16.2 52 6.4 ENE 17 24 9 13 1020.5 1020.1 0.0
17/12:00pm 25.5 24.2 16.9 59 5.3 ENE 19 22 10 12 1021.3 1020.9 0.0
17/11:30am 25.7 25.0 16.5 56 5.7 NNE 15 19 8 10 1021.9 1021.5 0.0
17/11:00am 26.7 24.8 15.7 51 6.7 NE 20 32 11 17 1022.3 1021.9 0.0
17/10:30am 26.8 25.1 15.8 51 6.8 ENE 19 30 10 16 1022.6 1022.2 0.0
17/10:00am 25.5 25.6 16.4 57 5.6 E 11 20 6 11 1023.1 1022.7 0.0
17/09:30am 25.1 24.6 16.0 57 5.6 E 13 20 7 11 1023.5 1023.1 0.0
17/09:00am 24.2 23.6 16.7 63 4.6 E 15 24 8 13 1023.7 1023.2 0.0
17/08:30am 22.4 24.0 16.9 71 3.4 E 4 7 2 4 1023.8 1023.3 0.0
17/08:00am 20.6 22.6 17.0 80 2.2 N 2 6 1 3 1023.7 1023.2 0.0
17/07:30am 18.1 20.2 16.3 89 1.1 CALM 0 0 0 0 1023.5 1023.1 0.0
17/07:00am 16.3 18.1 15.5 95 0.5 CALM 0 0 0 0 1023.4 1023.0 0.0
17/06:30am 15.0 16.0 14.2 95 0.5 WNW 2 4 1 2 1023.1 1022.7 0.0
17/06:00am 15.6 16.5 15.0 96 0.3 WSW 4 4 2 2 1022.7 1022.3 0.0
17/05:30am 15.6 16.5 15.0 96 0.3 WSW 4 6 2 3 1022.5 1022.1 0.0
17/05:00am 15.7 16.6 15.1 96 0.3 SW 4 6 2 3 1022.1 1021.7 0.0
17/04:30am 15.8 17.1 15.2 96 0.3 SSW 2 4 1 2 1021.7 1021.3 0.0
17/04:00am 15.3 15.9 14.3 94 0.6 SSW 4 7 2 4 1021.5 1021.1 0.0
17/03:30am 15.7 17.0 15.1 96 0.3 W 2 4 1 2 1021.3 1020.9 0.0
17/03:00am 15.4 16.8 14.3 93 0.6 CALM 0 0 0 0 1021.4 1021.0 0.0
17/02:30am 15.9 17.5 14.9 94 0.6 CALM 0 0 0 0 1021.6 1021.2 0.0
17/02:00am 16.1 17.8 15.3 95 0.5 CALM 0 0 0 0 1021.9 1021.5 0.0
17/01:30am 16.3 18.1 15.5 95 0.5 CALM 0 0 0 0 1022.4 1022.0 0.0
17/01:00am 16.5 16.9 15.4 93 0.6 SE 7 7 4 4 1022.7 1022.3 0.0
17/12:30am 16.6 17.3 14.6 88 1.2 SE 4 6 2 3 1022.9 1022.5 0.0
17/12:00am 18.0 19.4 16.3 90 1.0 SE 4 4 2 2 1023.4 1023.0 0.0
 
Date/Time
EST
Temp
°C
App
Temp
°C
Dew
Point
Rel
Hum
%
Delta-T
°C
Wind Press
QNH
hPa
Press
MSL
hPa
Rain
since 9 am
mm
Dir
 
Spd
km/h
Gust
km/h
Spd
kts
Gust
kts
16/11:30pm 17.7 19.6 15.7 88 1.2 CALM 0 0 0 0 1023.5 1023.1 0.0
16/11:00pm 18.4 20.3 15.8 85 1.5 CALM 0 0 0 0 1023.7 1023.2 0.0
16/10:30pm 18.5 20.5 15.9 85 1.5 CALM 0 0 0 0 1023.9 1023.4 0.0
16/10:00pm 19.3 20.6 16.2 82 1.9 NNE 4 7 2 4 1023.9 1023.4 0.0
16/09:30pm 19.4 19.9 15.5 78 2.3 NE 7 9 4 5 1023.9 1023.4 0.0
16/09:00pm 20.4 21.0 15.8 75 2.7 NE 7 9 4 5 1023.5 1023.1 0.0
16/08:30pm 21.3 21.7 16.3 73 3.0 ENE 9 13 5 7 1023.2 1022.8 0.0
16/08:00pm 22.1 21.5 16.6 71 3.4 NE 15 20 8 11 1022.8 1022.4 0.0
16/07:30pm 22.6 22.5 16.9 70 3.5 ENE 13 20 7 11 1022.7 1022.3 0.0
16/07:00pm 22.7 23.2 16.5 68 3.8 ENE 9 13 5 7 1022.3 1021.9 0.0
16/06:30pm 23.5 23.5 16.3 64 4.4 NE 11 15 6 8 1021.9 1021.5 0.0
16/06:00pm 24.4 24.7 15.9 59 5.2 ENE 9 13 5 7 1021.5 1021.1 0.0
16/05:30pm 26.2 24.8 15.6 52 6.5 ENE 17 20 9 11 1021.1 1020.7 0.0
16/05:00pm 27.5 26.2 15.8 48 7.2 NE 17 24 9 13 1020.9 1020.5 0.0
16/04:30pm 28.8 27.6 13.9 40 9.0 E 13 20 7 11 1020.7 1020.3 0.0
16/04:00pm 28.4 27.0 13.5 40 8.9 ESE 13 17 7 9 1020.7 1020.3 0.0
16/03:30pm 29.4 28.2 12.8 36 9.8 E 11 20 6 11 1020.6 1020.2 0.0
16/03:00pm 29.6 28.4 12.9 35 9.9 ESE 11 20 6 11 1020.7 1020.3 0.0
16/02:30pm 27.8 25.8 11.4 36 9.4 ESE 13 20 7 11 1020.9 1020.5 0.0
16/02:00pm 29.7 28.2 13.0 35 9.9 ENE 13 26 7 14 1021.0 1020.6 0.0
16/01:30pm 28.9 28.4 13.9 39 9.0 E 9 19 5 10 1021.3 1020.9 0.0
16/01:00pm 28.5 27.3 14.0 41 8.7 ENE 13 20 7 11 1021.7 1021.3 0.0
16/12:30pm 27.9 26.8 14.2 43 8.2 ESE 13 20 7 11 1022.3 1021.9 0.0
16/12:00pm 27.8 25.9 14.1 43 8.2 ESE 17 24 9 13 1022.9 1022.5 0.0
16/11:30am 28.3 26.9 14.5 43 8.4 ENE 15 22 8 12 1023.5 1023.1 0.0
16/11:00am 26.9 26.1 15.0 48 7.2 E 13 20 7 11 1024.3 1023.8 0.0
16/10:30am 26.1 25.0 15.2 51 6.6 E 15 24 8 13 1024.9 1024.4 0.0
16/10:00am 25.4 24.9 16.0 56 5.7 SE 13 19 7 10 1025.3 1024.8 0.0
16/09:30am 24.6 24.1 15.8 58 5.4 ESE 13 24 7 13 1025.5 1025.1 0.0

Other Formats:

Comma delimited format used in spreadsheet applications
http://www.bom.gov.au/fwo/IDQ60801/IDQ60801.95543.axf

JavaScript Object Notation format (JSON) in row-major order
http://www.bom.gov.au/fwo/IDQ60801/IDQ60801.95543.json